Time;durP1;ratioP1;P1;durP2;ratioP2;P2;SDS_P1;SDS_P2;PMS_P1;PMS_P2;Temp;Humidity;BMP_temperature;BMP_pressure;BME280_temperature;BME280_humidity;BME280_pressure;Samples;Min_cycle;Max_cycle;Signal;HPM_P1;HPM_P2
2024/04/17 00:00:11;;;;;;;69.90;22.30;;;0.10;1.00;;;;;;5548205;25;20227;-73
2024/04/17 00:02:58;;;;;;;66.80;21.57;;;0.00;1.00;;;;;;5547904;25;20277;-72
2024/04/17 00:05:47;;;;;;;53.70;18.27;;;0.10;1.00;;;;;;5527666;25;20219;-73
2024/04/17 00:08:34;;;;;;;42.63;15.60;;;0.10;1.00;;;;;;5513874;25;20336;-73
2024/04/17 00:11:26;;;;;;;41.93;15.87;;;0.10;1.00;;;;;;5527731;25;20891;-72
2024/04/17 00:14:13;;;;;;;46.30;16.73;;;0.10;1.00;;;;;;5514569;25;20279;-73
2024/04/17 00:17:02;;;;;;;43.43;15.77;;;0.10;1.00;;;;;;5533611;25;20255;-72
2024/04/17 00:19:49;;;;;;;59.57;19.20;;;0.00;1.00;;;;;;5541190;25;20286;-72
2024/04/17 00:22:38;;;;;;;48.83;18.20;;;0.20;1.00;;;;;;5549940;25;20235;-72
2024/04/17 00:25:25;;;;;;;63.70;18.70;;;0.10;1.00;;;;;;5533755;25;20266;-72
2024/04/17 00:28:17;;;;;;;70.57;23.80;;;0.10;1.00;;;;;;5524058;25;20237;-72
2024/04/17 00:31:04;;;;;;;88.83;25.83;;;0.20;1.00;;;;;;5531533;25;20306;-72
2024/04/17 00:33:53;;;;;;;89.10;26.20;;;0.20;1.00;;;;;;5549751;25;20223;-72
2024/04/17 00:36:40;;;;;;;104.27;33.20;;;0.20;1.00;;;;;;5531301;25;20630;-72
2024/04/17 00:39:29;;;;;;;95.17;29.03;;;0.30;1.00;;;;;;5536051;25;20298;-72
2024/04/17 00:42:16;;;;;;;70.63;22.20;;;0.30;1.00;;;;;;5532596;25;20624;-72
2024/04/17 00:45:08;;;;;;;58.47;19.60;;;0.30;1.00;;;;;;5538376;25;20234;-71
2024/04/17 00:47:55;;;;;;;50.57;19.13;;;0.30;1.00;;;;;;5549139;25;20281;-72
2024/04/17 00:50:45;;;;;;;50.07;18.50;;;0.20;1.00;;;;;;5540617;25;20223;-72
2024/04/17 00:53:33;;;;;;;48.80;19.07;;;0.20;1.00;;;;;;5542716;25;20627;-72
2024/04/17 00:56:22;;;;;;;57.90;20.73;;;0.10;1.00;;;;;;5516346;25;20225;-72
2024/04/17 00:59:09;;;;;;;100.27;34.77;;;0.10;1.00;;;;;;5538810;25;20233;-72
2024/04/17 01:02:01;;;;;;;64.57;22.87;;;0.10;1.00;;;;;;5526745;25;20273;-72
2024/04/17 01:04:47;;;;;;;62.80;21.70;;;0.10;1.00;;;;;;5516816;25;20244;-72
2024/04/17 01:07:37;;;;;;;40.43;15.70;;;0.10;1.00;;;;;;5541547;25;20760;-72
2024/04/17 01:10:23;;;;;;;33.07;13.50;;;0.10;1.00;;;;;;5528105;25;20293;-72
2024/04/17 01:13:13;;;;;;;40.20;15.47;;;0.10;1.00;;;;;;5537853;25;20793;-72
2024/04/17 01:15:59;;;;;;;28.63;10.73;;;0.20;1.00;;;;;;5514760;25;20329;-72
2024/04/17 01:18:51;;;;;;;28.10;10.97;;;0.20;1.00;;;;;;5536581;25;20718;-72
2024/04/17 01:21:38;;;;;;;26.33;10.80;;;0.40;1.00;;;;;;5545976;25;20287;-72
2024/04/17 01:24:30;;;;;;;21.33;9.03;;;0.40;1.00;;;;;;5553199;25;20230;-72
2024/04/17 01:27:17;;;;;;;20.97;9.07;;;0.40;1.00;;;;;;5539952;25;20282;-72
2024/04/17 01:30:06;;;;;;;21.80;8.90;;;0.40;1.00;;;;;;5549486;25;20847;-72
2024/04/17 01:32:53;;;;;;;16.23;7.33;;;0.50;1.00;;;;;;5525139;25;20713;-72
2024/04/17 01:35:42;;;;;;;16.47;6.00;;;0.50;1.00;;;;;;5524027;25;20220;-72
2024/04/17 01:38:29;;;;;;;22.00;9.67;;;0.60;1.00;;;;;;5532902;25;20231;-72
2024/04/17 01:41:21;;;;;;;21.40;9.50;;;0.70;1.00;;;;;;5529661;25;20227;-73
2024/04/17 01:44:08;;;;;;;20.87;9.07;;;0.80;1.00;;;;;;5551557;25;20619;-73
2024/04/17 01:46:57;;;;;;;21.30;9.10;;;0.90;1.00;;;;;;5530673;25;20273;-73
2024/04/17 01:49:44;;;;;;;42.80;15.27;;;1.00;1.00;;;;;;5538649;25;20402;-73
2024/04/17 01:52:33;;;;;;;39.87;14.60;;;1.10;8.80;;;;;;5536082;25;20714;-73
2024/04/17 01:55:20;;;;;;;39.33;13.90;;;1.20;6.80;;;;;;5509350;25;20787;-73
2024/04/17 01:58:12;;;;;;;33.00;13.47;;;1.30;16.00;;;;;;5498849;25;20555;-73
2024/04/17 02:01:04;;;;;;;34.97;14.17;;;1.40;29.90;;;;;;5481962;26;20291;-73
2024/04/17 02:03:53;;;;;;;32.23;13.73;;;1.40;16.80;;;;;;5488311;25;20225;-73
2024/04/17 02:06:40;;;;;;;47.50;22.03;;;1.40;13.30;;;;;;5496999;25;20275;-73
2024/04/17 02:09:29;;;;;;;37.73;17.27;;;1.40;13.30;;;;;;5511442;25;20228;-73
2024/04/17 02:12:16;;;;;;;38.57;19.17;;;1.50;15.10;;;;;;5493355;26;20719;-73
2024/04/17 02:15:09;;;;;;;27.57;11.83;;;1.50;27.80;;;;;;5495571;25;20569;-73
2024/04/17 02:17:56;;;;;;;21.43;10.30;;;1.60;29.50;;;;;;5502262;25;20235;-73
2024/04/17 02:20:45;;;;;;;33.77;11.30;;;1.70;43.90;;;;;;5518624;25;20278;-73
2024/04/17 02:23:32;;;;;;;21.10;8.80;;;1.80;48.40;;;;;;5499960;25;20239;-73
2024/04/17 02:26:21;;;;;;;21.00;9.13;;;1.80;61.30;;;;;;5508540;25;20726;-73
2024/04/17 02:29:08;;;;;;;21.43;10.17;;;1.90;59.10;;;;;;5508312;25;20420;-73
2024/04/17 02:32:00;;;;;;;30.27;16.37;;;2.00;59.20;;;;;;5517348;25;20335;-73
2024/04/17 02:34:46;;;;;;;49.40;27.20;;;2.00;66.50;;;;;;5511971;25;20293;-73
2024/04/17 02:37:36;;;;;;;44.67;21.63;;;2.10;86.30;;;;;;5515261;25;20719;-73
2024/04/17 02:40:22;;;;;;;27.53;12.23;;;2.10;78.90;;;;;;5519039;25;20234;-73
2024/04/17 02:43:12;;;;;;;21.30;11.37;;;2.20;83.10;;;;;;5507656;25;20332;-73
2024/04/17 02:45:58;;;;;;;31.87;15.07;;;2.20;67.40;;;;;;5514373;25;20239;-73
2024/04/17 02:48:50;;;;;;;32.10;16.67;;;2.20;62.90;;;;;;5520484;25;20763;-73
2024/04/17 02:51:37;;;;;;;24.70;13.47;;;2.30;70.80;;;;;;5514686;25;20223;-73
2024/04/17 02:54:26;;;;;;;30.97;14.87;;;2.40;90.40;;;;;;5511645;25;20643;-73
2024/04/17 02:57:13;;;;;;;27.93;13.37;;;2.50;87.50;;;;;;5551512;25;20290;-73
2024/04/17 03:00:02;;;;;;;26.37;13.73;;;2.60;66.30;;;;;;5540810;25;20330;-73
2024/04/17 03:02:52;;;;;;;28.53;14.17;;;2.60;54.40;;;;;;5558008;25;20226;-74
2024/04/17 03:05:41;;;;;;;29.90;14.43;;;2.60;51.30;;;;;;5539928;25;20269;-73
2024/04/17 03:08:30;;;;;;;23.40;14.23;;;2.60;49.50;;;;;;5545495;25;20230;-73
2024/04/17 03:11:17;;;;;;;31.37;15.50;;;2.60;56.00;;;;;;5545626;25;20794;-74
2024/04/17 03:14:06;;;;;;;25.60;13.83;;;2.70;74.80;;;;;;5539856;25;20224;-73
2024/04/17 03:16:53;;;;;;;27.07;13.17;;;2.70;79.70;;;;;;5547885;25;20597;-73
2024/04/17 03:19:42;;;;;;;23.53;12.83;;;2.70;89.90;;;;;;5543768;25;20230;-73
2024/04/17 03:22:31;;;;;;;25.43;13.27;;;2.80;82.70;;;;;;5548351;25;20282;-73
2024/04/17 03:25:21;;;;;;;26.10;14.30;;;2.80;85.20;;;;;;5541366;25;20693;-73
2024/04/17 03:28:07;;;;;;;28.43;15.07;;;2.90;90.30;;;;;;5533365;25;20303;-73
2024/04/17 03:30:57;;;;;;;27.53;15.17;;;3.00;93.40;;;;;;5546014;25;20231;-74
2024/04/17 03:33:49;;;;;;;26.33;14.47;;;3.00;88.60;;;;;;5550845;25;20226;-74
2024/04/17 03:36:35;;;;;;;27.53;14.57;;;3.10;77.70;;;;;;5561337;25;20239;-74
2024/04/17 03:39:27;;;;;;;33.17;17.13;;;3.00;59.90;;;;;;5549180;25;20585;-73
2024/04/17 03:42:17;;;;;;;27.83;15.57;;;3.00;54.00;;;;;;5555245;25;20303;-74
2024/04/17 03:45:06;;;;;;;24.97;14.00;;;3.10;56.20;;;;;;5551288;25;20222;-73
2024/04/17 03:47:56;;;;;;;25.50;12.10;;;3.20;67.70;;;;;;5548283;25;20354;-73
2024/04/17 03:50:42;;;;;;;21.90;12.30;;;3.10;60.20;;;;;;5543898;25;20722;-73
2024/04/17 03:53:31;;;;;;;23.47;12.23;;;3.20;63.50;;;;;;5552809;25;20785;-73
2024/04/17 03:56:21;;;;;;;22.60;12.33;;;3.20;57.50;;;;;;5541240;25;20238;-73
2024/04/17 03:59:10;;;;;;;23.60;11.83;;;3.30;46.10;;;;;;5553178;25;20325;-73
2024/04/17 04:01:57;;;;;;;20.20;10.60;;;3.30;31.40;;;;;;5549015;25;20276;-73
2024/04/17 04:04:46;;;;;;;19.40;9.03;;;3.30;34.40;;;;;;5538349;25;20608;-73
2024/04/17 04:07:33;;;;;;;17.33;9.73;;;3.30;45.80;;;;;;5538788;25;20285;-73
2024/04/17 04:10:23;;;;;;;20.27;9.30;;;3.40;32.90;;;;;;5547315;25;20728;-72
2024/04/17 04:13:15;;;;;;;18.73;8.10;;;3.40;24.20;;;;;;5547217;25;20722;-73
2024/04/17 04:16:01;;;;;;;19.33;8.47;;;3.30;19.10;;;;;;5537425;25;20281;-73
2024/04/17 04:18:51;;;;;;;14.27;7.50;;;3.40;23.30;;;;;;5538722;25;20338;-73
2024/04/17 04:21:37;;;;;;;19.97;8.90;;;3.40;28.00;;;;;;5542680;25;20273;-73
2024/04/17 04:24:27;;;;;;;20.93;7.87;;;3.40;35.50;;;;;;5547591;25;20226;-73
2024/04/17 04:27:16;;;;;;;15.30;7.77;;;3.50;42.00;;;;;;5571740;25;20810;-73
2024/04/17 04:30:07;;;;;;;16.67;7.13;;;3.40;44.90;;;;;;5541319;25;20338;-73
2024/04/17 04:32:56;;;;;;;22.60;10.43;;;3.60;54.80;;;;;;5553346;25;20582;-73
2024/04/17 04:35:43;;;;;;;23.40;7.30;;;3.60;69.90;;;;;;5546454;25;20804;-73
2024/04/17 04:38:32;;;;;;;15.83;8.83;;;3.70;56.30;;;;;;5541962;25;20827;-73
2024/04/17 04:41:19;;;;;;;21.23;11.60;;;3.80;42.40;;;;;;5550849;25;20238;-73
2024/04/17 04:44:08;;;;;;;22.30;9.97;;;3.90;38.40;;;;;;5553593;25;20280;-73
2024/04/17 04:46:58;;;;;;;32.10;14.23;;;3.90;14.00;;;;;;5564592;25;20235;-73
2024/04/17 04:49:47;;;;;;;26.47;12.97;;;3.90;1.00;;;;;;5544712;25;20268;-73
2024/04/17 04:52:34;;;;;;;30.70;13.70;;;4.00;1.00;;;;;;5549320;25;20226;-73
2024/04/17 04:55:23;;;;;;;26.20;13.37;;;4.00;1.00;;;;;;5545288;25;20564;-73
2024/04/17 04:58:10;;;;;;;28.63;14.67;;;4.10;1.00;;;;;;5543415;25;20241;-73
2024/04/17 05:00:59;;;;;;;30.73;14.83;;;4.10;1.00;;;;;;5543194;25;20330;-73
2024/04/17 05:03:49;;;;;;;26.90;12.73;;;4.20;1.00;;;;;;5535545;25;20274;-73
2024/04/17 05:06:38;;;;;;;27.03;14.63;;;4.30;1.00;;;;;;5532346;25;20554;-72
2024/04/17 05:09:26;;;;;;;31.17;16.47;;;4.30;1.00;;;;;;5548323;25;20245;-73
2024/04/17 05:12:16;;;;;;;33.83;16.53;;;4.30;99.90;;;;;;5535320;25;20336;-73
2024/04/17 05:15:03;;;;;;;31.80;16.03;;;4.30;99.90;;;;;;5532854;25;20235;-73
2024/04/17 05:17:52;;;;;;;30.73;16.27;;;4.30;99.90;;;;;;5538252;25;20613;-72
2024/04/17 05:20:44;;;;;;;32.00;16.10;;;4.40;99.90;;;;;;5547691;25;20338;-73
2024/04/17 05:23:31;;;;;;;37.23;16.97;;;4.40;1.00;;;;;;5544056;25;20289;-73
2024/04/17 05:26:20;;;;;;;34.23;16.00;;;4.40;1.00;;;;;;5542243;25;20333;-72
2024/04/17 05:29:07;;;;;;;34.47;17.07;;;4.50;1.00;;;;;;5537658;25;20337;-72
2024/04/17 05:31:56;;;;;;;36.13;19.30;;;4.50;1.00;;;;;;5559822;25;20317;-73
2024/04/17 05:34:45;;;;;;;37.13;16.93;;;4.50;1.00;;;;;;5545574;25;20334;-73
2024/04/17 05:37:35;;;;;;;29.30;15.20;;;4.50;1.00;;;;;;5534068;25;20654;-73
2024/04/17 05:40:24;;;;;;;27.67;13.53;;;4.50;1.00;;;;;;5554747;25;20233;-73
2024/04/17 05:43:13;;;;;;;27.70;12.43;;;4.40;99.90;;;;;;5554197;25;20708;-73
2024/04/17 05:46:03;;;;;;;23.83;11.13;;;4.30;1.00;;;;;;5538159;25;20271;-72
2024/04/17 05:48:52;;;;;;;20.00;10.83;;;4.40;1.00;;;;;;5543419;25;20233;-72
2024/04/17 05:51:39;;;;;;;17.27;8.97;;;4.30;99.90;;;;;;5546854;25;20637;-72
2024/04/17 05:54:31;;;;;;;17.83;8.67;;;4.30;1.00;;;;;;5549555;25;20269;-72
2024/04/17 05:57:17;;;;;;;17.07;7.97;;;4.30;99.90;;;;;;5505139;25;20228;-65
2024/04/17 06:00:07;;;;;;;13.73;7.93;;;4.30;37.30;;;;;;5510003;25;20219;-65
2024/04/17 06:02:54;;;;;;;12.67;7.63;;;4.30;99.90;;;;;;5512006;25;20278;-65
2024/04/17 06:05:43;;;;;;;15.13;8.67;;;4.40;22.30;;;;;;5504068;25;20225;-65
2024/04/17 06:08:30;;;;;;;19.70;10.90;;;4.40;1.00;;;;;;5501750;25;20336;-65
2024/04/17 06:11:23;;;;;;;17.33;9.40;;;4.30;1.00;;;;;;5514013;25;20224;-65
2024/04/17 06:14:10;;;;;;;18.87;10.53;;;4.20;99.90;;;;;;5503777;25;20562;-66
2024/04/17 06:16:59;;;;;;;19.57;10.83;;;4.30;99.90;;;;;;5503649;25;20228;-65
2024/04/17 06:19:46;;;;;;;15.23;8.93;;;4.30;40.80;;;;;;5522288;25;20670;-65
2024/04/17 06:22:35;;;;;;;17.10;10.67;;;4.30;1.00;;;;;;5518854;25;20223;-66
2024/04/17 06:25:22;;;;;;;21.57;10.30;;;4.40;53.90;;;;;;5515358;25;21958;-66
2024/04/17 06:28:14;;;;;;;27.03;12.87;;;4.30;1.00;;;;;;5515581;25;20300;-65
2024/04/17 06:31:01;;;;;;;22.33;11.07;;;4.30;14.50;;;;;;5523311;25;20248;-65
2024/04/17 06:33:50;;;;;;;22.77;12.50;;;4.30;30.40;;;;;;5512157;25;20623;-65
2024/04/17 06:36:39;;;;;;;21.87;12.00;;;4.30;1.00;;;;;;5513356;25;20284;-65
2024/04/17 06:39:28;;;;;;;23.77;12.17;;;4.40;99.90;;;;;;5511563;25;20265;-66
2024/04/17 06:42:15;;;;;;;20.17;11.13;;;4.30;99.90;;;;;;5505464;25;20307;-66
2024/04/17 06:45:08;;;;;;;22.40;12.70;;;4.30;99.90;;;;;;5489184;26;20637;-66
2024/04/17 06:47:54;;;;;;;26.83;14.57;;;4.30;1.00;;;;;;5510957;25;20270;-65
2024/04/17 06:50:43;;;;;;;18.80;11.07;;;4.30;1.00;;;;;;5513454;25;20300;-65
2024/04/17 06:53:30;;;;;;;15.63;8.43;;;4.40;99.90;;;;;;5516558;25;21069;-65
2024/04/17 06:56:19;;;;;;;26.27;14.67;;;4.40;99.90;;;;;;5500818;25;20277;-65
2024/04/17 06:59:06;;;;;;;34.00;15.23;;;4.30;1.00;;;;;;5513851;25;20713;-65
2024/04/17 07:01:58;;;;;;;39.80;18.60;;;4.40;99.90;;;;;;5513042;26;20329;-65
2024/04/17 07:04:45;;;;;;;39.90;17.30;;;4.40;1.00;;;;;;5498974;25;20279;-66
2024/04/17 07:07:34;;;;;;;43.03;16.03;;;4.30;1.00;;;;;;5497803;25;20767;-65
2024/04/17 07:10:21;;;;;;;53.93;23.27;;;4.30;35.80;;;;;;5502364;25;20295;-65
2024/04/17 07:13:11;;;;;;;59.77;23.03;;;4.30;99.90;;;;;;5504722;25;20231;-65
2024/04/17 07:15:57;;;;;;;68.07;24.63;;;4.40;99.90;;;;;;5494356;25;20350;-65
2024/04/17 07:18:49;;;;;;;57.00;22.43;;;4.50;1.00;;;;;;5496478;25;20537;-65
2024/04/17 07:21:36;;;;;;;65.50;22.80;;;4.60;99.90;;;;;;5502358;25;20227;-65
2024/04/17 07:24:26;;;;;;;60.63;23.80;;;4.60;99.90;;;;;;5513433;25;20352;-65
2024/04/17 07:27:12;;;;;;;66.13;24.03;;;4.60;99.90;;;;;;5504331;25;20278;-66
2024/04/17 07:30:02;;;;;;;64.03;24.27;;;4.60;99.90;;;;;;5491104;25;20330;-65
2024/04/17 07:32:48;;;;;;;52.53;23.10;;;4.70;1.00;;;;;;5504013;25;20227;-65
2024/04/17 07:35:41;;;;;;;25.23;11.77;;;4.50;99.90;;;;;;5501426;25;20223;-65
2024/04/17 07:38:28;;;;;;;26.20;15.43;;;4.50;1.00;;;;;;5510405;25;20286;-64
2024/04/17 07:41:17;;;;;;;24.23;11.93;;;4.60;1.00;;;;;;5520559;25;20223;-65
2024/04/17 07:44:04;;;;;;;22.63;9.73;;;4.60;1.00;;;;;;5502840;25;20718;-66
2024/04/17 07:46:53;;;;;;;42.60;20.17;;;4.70;1.00;;;;;;5515714;25;20228;-65
2024/04/17 07:49:40;;;;;;;38.27;19.90;;;4.80;1.00;;;;;;5517952;25;20342;-66
2024/04/17 07:52:32;;;;;;;34.23;19.17;;;5.10;99.90;;;;;;5505471;25;20276;-65
2024/04/17 07:55:19;;;;;;;28.57;14.50;;;5.10;1.00;;;;;;5494416;25;20314;-65
2024/04/17 07:58:08;;;;;;;34.43;18.40;;;5.20;1.00;;;;;;5513042;25;20327;-65
2024/04/17 08:00:55;;;;;;;30.90;15.43;;;5.20;1.00;;;;;;5509846;25;20646;-65
2024/04/17 08:03:44;;;;;;;27.67;15.77;;;5.40;1.50;;;;;;5499280;25;20233;-65
2024/04/17 08:06:31;;;;;;;29.27;17.60;;;5.30;94.30;;;;;;5508033;25;20306;-65
2024/04/17 08:09:23;;;;;;;32.07;18.93;;;5.10;1.00;;;;;;5509544;25;20313;-65
2024/04/17 08:12:10;;;;;;;43.90;22.20;;;5.10;99.90;;;;;;5497359;25;20230;-65
2024/04/17 08:14:59;;;;;;;41.53;20.50;;;5.30;1.00;;;;;;5503549;25;20296;-65
2024/04/17 08:17:46;;;;;;;35.20;20.57;;;5.10;99.90;;;;;;5506544;25;20927;-65
2024/04/17 08:20:35;;;;;;;38.73;21.37;;;5.10;1.00;;;;;;5500573;25;20266;-65
2024/04/17 08:23:22;;;;;;;35.70;18.40;;;5.10;1.00;;;;;;5505672;25;20236;-65
2024/04/17 08:26:14;;;;;;;34.83;21.30;;;5.00;99.90;;;;;;5497442;25;20307;-65
2024/04/17 08:29:01;;;;;;;38.70;20.20;;;4.80;1.00;;;;;;5498541;25;20711;-65
2024/04/17 08:31:50;;;;;;;36.90;18.70;;;4.70;1.00;;;;;;5510365;25;20335;-65
2024/04/17 08:34:37;;;;;;;34.20;16.23;;;4.60;1.00;;;;;;5500248;25;20224;-65
2024/04/17 08:37:26;;;;;;;44.30;21.67;;;4.60;99.90;;;;;;5501466;25;20225;-67
2024/04/17 08:40:13;;;;;;;42.73;23.77;;;4.50;1.00;;;;;;5514121;25;20334;-65
2024/04/17 08:43:06;;;;;;;44.37;24.30;;;4.60;1.00;;;;;;5511941;25;20592;-65
2024/04/17 08:45:53;;;;;;;35.93;16.57;;;4.30;99.90;;;;;;5501914;25;20228;-65
2024/04/17 08:48:42;;;;;;;34.30;17.77;;;4.50;1.00;;;;;;5497991;26;20270;-65
2024/04/17 08:51:29;;;;;;;35.57;17.60;;;4.50;1.00;;;;;;5506994;25;20749;-65
2024/04/17 08:54:19;;;;;;;38.53;19.83;;;4.60;99.90;;;;;;5504639;25;20231;-65
2024/04/17 08:57:05;;;;;;;40.40;19.07;;;4.50;1.00;;;;;;5542552;25;20229;-65
2024/04/17 08:59:57;;;;;;;39.07;18.40;;;4.50;99.90;;;;;;5544431;25;20301;-65
2024/04/17 09:02:44;;;;;;;31.17;17.00;;;4.50;1.00;;;;;;5552962;25;20330;-65
2024/04/17 09:05:34;;;;;;;24.57;13.70;;;4.50;99.90;;;;;;5524760;25;20296;-65
2024/04/17 09:08:20;;;;;;;35.63;19.83;;;4.70;99.90;;;;;;5538537;25;20602;-65
2024/04/17 09:11:10;;;;;;;36.53;18.07;;;4.80;1.00;;;;;;5538019;25;20422;-66
2024/04/17 09:13:56;;;;;;;32.97;17.53;;;4.90;1.00;;;;;;5553138;25;20229;-65
2024/04/17 09:16:48;;;;;;;11.83;6.43;;;5.00;1.00;;;;;;5548152;25;20228;-65
2024/04/17 09:19:35;;;;;;;22.73;12.57;;;5.20;1.00;;;;;;5554615;25;20234;-65
2024/04/17 09:22:24;;;;;;;25.87;16.00;;;5.30;99.90;;;;;;5543340;25;20221;-65
2024/04/17 09:25:14;;;;;;;25.80;14.70;;;5.50;1.00;;;;;;5562810;25;20266;-66
2024/04/17 09:28:04;;;;;;;25.13;14.83;;;5.50;99.90;;;;;;5551865;25;20760;-65
2024/04/17 09:30:51;;;;;;;18.40;8.63;;;5.80;99.90;;;;;;5561771;25;20302;-65
2024/04/17 09:33:47;;;;;;;17.37;10.63;;;5.70;99.90;;;;;;5532627;25;20231;-66
2024/04/17 09:36:34;;;;;;;16.13;10.20;;;5.70;99.90;;;;;;5530104;25;20241;-65
2024/04/17 09:39:24;;;;;;;19.27;11.13;;;5.50;99.90;;;;;;5529651;25;20286;-65
2024/04/17 09:42:11;;;;;;;17.33;10.57;;;5.60;99.90;;;;;;5531913;25;20330;-65
2024/04/17 09:45:02;;;;;;;16.27;10.43;;;5.60;99.90;;;;;;5540759;25;20333;-65
2024/04/17 09:47:49;;;;;;;12.67;7.00;;;5.60;1.00;;;;;;5544462;25;20234;-65
2024/04/17 09:50:42;;;;;;;19.67;10.53;;;5.70;99.90;;;;;;5542025;25;20234;-66
2024/04/17 09:53:33;;;;;;;15.60;10.20;;;5.50;99.90;;;;;;5546792;25;20234;-65
2024/04/17 09:56:20;;;;;;;15.50;10.07;;;5.60;99.90;;;;;;5544544;25;20279;-65
2024/04/17 09:59:10;;;;;;;11.93;5.97;;;5.60;99.90;;;;;;5531561;25;20306;-66
2024/04/17 10:01:57;;;;;;;17.83;10.73;;;5.50;1.00;;;;;;5541003;25;20265;-65
2024/04/17 10:04:47;;;;;;;16.93;10.00;;;5.40;99.90;;;;;;5547198;25;20297;-65
2024/04/17 10:07:36;;;;;;;14.20;9.37;;;5.30;79.30;;;;;;5524374;25;20231;-65
2024/04/17 10:10:26;;;;;;;10.53;6.17;;;5.60;99.90;;;;;;5531924;25;20235;-65
2024/04/17 10:13:16;;;;;;;14.57;8.33;;;5.50;1.00;;;;;;5522451;25;20273;-66
2024/04/17 10:16:04;;;;;;;10.70;7.03;;;5.50;1.00;;;;;;5541949;25;20234;-66
2024/04/17 10:18:53;;;;;;;14.90;6.17;;;5.80;1.00;;;;;;5533612;25;20231;-65
2024/04/17 10:21:41;;;;;;;13.80;8.93;;;5.60;99.90;;;;;;5535608;25;20290;-65
2024/04/17 10:24:33;;;;;;;11.10;7.17;;;5.50;99.90;;;;;;5549726;25;20721;-65
2024/04/17 10:27:21;;;;;;;14.20;10.17;;;5.40;1.00;;;;;;5535445;25;20227;-65
2024/04/17 10:30:12;;;;;;;14.93;9.23;;;5.60;1.00;;;;;;5535133;25;20265;-65
2024/04/17 10:32:59;;;;;;;16.70;9.47;;;5.70;1.00;;;;;;5540729;25;20336;-65
2024/04/17 10:35:51;;;;;;;17.73;10.73;;;5.80;45.60;;;;;;5571911;25;20222;-66
2024/04/17 10:38:41;;;;;;;16.00;10.87;;;5.50;1.00;;;;;;5533618;25;20790;-65
2024/04/17 10:41:31;;;;;;;15.97;10.20;;;5.40;1.00;;;;;;5544409;25;20569;-65
2024/04/17 10:44:22;;;;;;;17.40;10.77;;;5.50;1.00;;;;;;5537501;25;20765;-65
2024/04/17 10:47:08;;;;;;;16.57;9.77;;;5.40;99.90;;;;;;5535337;25;20340;-65
2024/04/17 10:49:59;;;;;;;16.27;10.23;;;5.40;1.00;;;;;;5542877;25;20268;-65
2024/04/17 10:52:45;;;;;;;13.67;10.27;;;5.50;1.00;;;;;;5524855;25;20297;-65
2024/04/17 10:55:35;;;;;;;13.67;9.60;;;5.70;99.90;;;;;;5529040;25;20240;-65
2024/04/17 10:58:24;;;;;;;13.97;8.13;;;5.70;1.00;;;;;;5540813;25;20236;-66
2024/04/17 11:01:16;;;;;;;7.30;5.30;;;5.80;1.00;;;;;;5524656;25;20294;-67
2024/04/17 11:04:03;;;;;;;9.90;6.73;;;5.80;99.90;;;;;;5536308;25;20782;-65
2024/04/17 11:06:52;;;;;;;12.63;7.87;;;6.00;99.90;;;;;;5511602;25;20282;-65
2024/04/17 11:09:42;;;;;;;12.97;7.67;;;6.10;99.90;;;;;;5543416;25;20672;-65
2024/04/17 11:12:32;;;;;;;9.20;6.63;;;6.30;99.90;;;;;;5542194;25;20276;-66
2024/04/17 11:15:24;;;;;;;11.73;6.33;;;6.50;1.00;;;;;;5543689;25;20281;-65
2024/04/17 11:18:11;;;;;;;12.43;6.33;;;6.60;1.00;;;;;;5545104;25;20331;-65
2024/04/17 11:21:00;;;;;;;11.33;6.27;;;6.90;1.00;;;;;;5544393;25;20564;-65
2024/04/17 11:23:46;;;;;;;9.93;5.87;;;6.80;1.00;;;;;;5537270;25;20296;-66
2024/04/17 11:26:36;;;;;;;5.17;3.53;;;7.10;1.00;;;;;;5536566;25;20551;-65
2024/04/17 11:29:23;;;;;;;6.83;4.67;;;7.10;1.00;;;;;;5543917;25;20283;-66
2024/04/17 11:32:15;;;;;;;10.03;3.40;;;7.00;1.00;;;;;;5542837;25;20322;-65
2024/04/17 11:35:12;;;;;;;4.47;3.60;;;7.20;99.90;;;;;;5534440;25;20231;-65
2024/04/17 11:38:02;;;;;;;4.87;3.73;;;7.10;1.00;;;;;;5541507;25;20730;-65
2024/04/17 11:40:48;;;;;;;3.67;2.07;;;7.20;99.90;;;;;;5524549;25;20281;-65
2024/04/17 11:43:38;;;;;;;4.93;3.57;;;7.60;99.90;;;;;;5537066;25;20280;-67
2024/04/17 11:46:27;;;;;;;6.40;4.13;;;7.50;99.90;;;;;;5531581;25;20234;-65
2024/04/17 11:49:17;;;;;;;4.23;2.97;;;7.40;99.90;;;;;;5533018;25;20297;-65
2024/04/17 11:52:07;;;;;;;9.00;3.40;;;7.00;99.90;;;;;;5538020;25;20644;-65
2024/04/17 11:54:56;;;;;;;5.50;4.03;;;6.80;99.90;;;;;;5556472;25;20622;-65
2024/04/17 11:57:43;;;;;;;7.97;3.57;;;7.10;99.90;;;;;;5547877;25;20805;-65
2024/04/17 12:00:32;;;;;;;5.17;4.03;;;7.40;99.90;;;;;;5551181;25;20277;-65
2024/04/17 12:03:20;;;;;;;6.77;4.43;;;7.30;99.90;;;;;;5536022;25;20282;-65
2024/04/17 12:06:13;;;;;;;5.13;3.07;;;7.90;99.90;;;;;;5535653;25;20280;-65
2024/04/17 12:09:01;;;;;;;3.20;2.33;;;7.70;99.90;;;;;;5546222;25;20247;-65
2024/04/17 12:11:50;;;;;;;6.67;4.03;;;7.60;99.90;;;;;;5535909;25;20706;-65
2024/04/17 12:14:37;;;;;;;7.73;4.43;;;7.30;99.90;;;;;;5544654;25;20268;-65
2024/04/17 12:17:26;;;;;;;6.70;4.20;;;7.00;99.90;;;;;;5543173;25;20233;-64
2024/04/17 12:20:13;;;;;;;5.90;3.87;;;7.00;99.90;;;;;;5519043;25;20240;-65
2024/04/17 12:23:05;;;;;;;3.40;2.57;;;7.10;99.90;;;;;;5545262;25;20224;-65
2024/04/17 12:28:59;;;;;;;5.60;3.73;;;6.80;99.90;;;;;;5532793;25;20705;-66
2024/04/17 12:31:48;;;;;;;6.73;5.10;;;6.90;99.90;;;;;;5571810;25;20287;-67
2024/04/17 12:34:38;;;;;;;7.30;4.37;;;7.00;99.90;;;;;;5532159;25;20272;-65
2024/04/17 12:37:27;;;;;;;7.90;4.90;;;6.90;99.90;;;;;;5528357;25;20598;-65
2024/04/17 12:40:19;;;;;;;10.90;6.60;;;6.70;99.90;;;;;;5533195;25;20234;-65
2024/04/17 12:43:09;;;;;;;11.53;7.10;;;6.50;1.00;;;;;;5530957;25;20239;-65
2024/04/17 12:45:58;;;;;;;10.83;7.40;;;6.40;1.00;;;;;;5547055;25;20839;-66
2024/04/17 12:48:49;;;;;;;13.10;7.20;;;6.40;1.00;;;;;;5542276;25;20233;-66
2024/04/17 12:51:38;;;;;;;12.50;7.83;;;6.30;1.00;;;;;;5543726;25;20339;-65
2024/04/17 12:54:27;;;;;;;11.90;8.40;;;6.30;1.00;;;;;;5531306;25;20915;-65
2024/04/17 12:57:19;;;;;;;12.00;7.93;;;6.40;1.00;;;;;;5540131;25;20278;-65
2024/04/17 13:00:10;;;;;;;14.63;9.30;;;6.50;1.00;;;;;;5542905;25;20730;-66
2024/04/17 13:03:00;;;;;;;10.40;7.37;;;6.80;99.90;;;;;;5543755;25;20281;-66
2024/04/17 13:05:46;;;;;;;8.63;4.33;;;7.20;1.00;;;;;;5533722;25;20224;-65
2024/04/17 13:08:37;;;;;;;15.30;8.37;;;7.30;99.90;;;;;;5529263;25;20256;-65
2024/04/17 13:11:23;;;;;;;12.23;8.50;;;7.10;1.00;;;;;;5537757;25;20228;-65
2024/04/17 13:14:15;;;;;;;13.43;8.63;;;7.50;99.90;;;;;;5542850;25;20233;-65
2024/04/17 13:17:05;;;;;;;13.63;8.87;;;7.70;99.90;;;;;;5562188;25;20291;-65
2024/04/17 13:19:51;;;;;;;14.10;8.73;;;7.50;99.90;;;;;;5530788;25;20239;-66
2024/04/17 13:22:41;;;;;;;17.27;8.03;;;7.30;99.90;;;;;;5538904;25;20601;-65
2024/04/17 13:25:27;;;;;;;11.90;8.17;;;7.40;99.90;;;;;;5545388;25;20292;-65
2024/04/17 13:28:17;;;;;;;11.30;8.30;;;7.30;99.90;;;;;;5536435;25;20261;-65
2024/04/17 13:31:07;;;;;;;13.70;8.03;;;7.10;99.90;;;;;;5532423;25;20346;-65
2024/04/17 13:33:56;;;;;;;6.83;4.57;;;6.90;1.00;;;;;;5524751;25;20230;-65
2024/04/17 13:36:43;;;;;;;5.33;2.80;;;6.80;1.00;;;;;;5553974;25;20286;-64
2024/04/17 13:39:32;;;;;;;9.27;6.40;;;6.50;1.00;;;;;;5538334;25;20714;-67
2024/04/17 13:42:21;;;;;;;10.70;4.80;;;6.20;3.80;;;;;;5518866;25;20233;-63
2024/04/17 13:45:08;;;;;;;11.37;6.37;;;6.30;21.10;;;;;;5545656;25;20605;-63
2024/04/17 13:48:00;;;;;;;9.27;6.23;;;6.10;99.90;;;;;;5534519;25;20274;-66
2024/04/17 13:50:47;;;;;;;5.17;3.07;;;6.20;99.90;;;;;;5540815;25;20715;-65
2024/04/17 13:53:37;;;;;;;9.63;6.27;;;6.30;99.90;;;;;;5538677;25;20283;-65
2024/04/17 13:56:26;;;;;;;9.87;6.33;;;6.30;99.90;;;;;;5543178;25;20628;-65
2024/04/17 13:59:15;;;;;;;4.07;2.50;;;6.40;99.90;;;;;;5538717;25;20282;-66
2024/04/17 14:02:05;;;;;;;12.07;6.07;;;6.40;99.90;;;;;;5538840;25;21307;-65
2024/04/17 14:04:54;;;;;;;12.03;6.57;;;6.30;99.90;;;;;;5526860;25;20659;-66
2024/04/17 14:07:44;;;;;;;9.60;5.90;;;6.40;99.90;;;;;;5537903;25;20354;-65
2024/04/17 14:10:30;;;;;;;11.53;6.30;;;6.50;99.90;;;;;;5533488;25;20288;-65
2024/04/17 14:13:21;;;;;;;12.53;6.50;;;6.50;99.90;;;;;;5535136;25;20237;-66
2024/04/17 14:16:08;;;;;;;9.90;6.30;;;6.80;99.90;;;;;;5538013;25;20289;-65
2024/04/17 14:18:58;;;;;;;11.43;5.53;;;7.00;1.00;;;;;;5538819;25;20339;-65
2024/04/17 14:21:48;;;;;;;7.77;5.30;;;7.10;1.00;;;;;;5535593;25;20242;-66
2024/04/17 14:24:37;;;;;;;6.87;5.13;;;7.20;1.00;;;;;;5534846;25;20288;-66
2024/04/17 14:27:24;;;;;;;7.07;3.67;;;7.00;1.00;;;;;;5536882;25;20228;-66
2024/04/17 14:30:13;;;;;;;6.10;4.03;;;6.80;91.90;;;;;;5528307;25;20795;-66
2024/04/17 14:33:00;;;;;;;7.43;5.50;;;6.90;99.90;;;;;;5536621;25;20893;-65
2024/04/17 14:35:49;;;;;;;9.10;6.40;;;7.40;99.90;;;;;;5524830;25;20305;-65
2024/04/17 14:38:38;;;;;;;10.10;6.30;;;7.70;99.90;;;;;;5547400;25;20767;-65
2024/04/17 14:41:29;;;;;;;9.33;6.07;;;7.60;99.90;;;;;;5535051;25;20265;-64